English Harbour East, Canada
Current Conditions -  °F | °C
As of 1:00 PM on Sunday 25 Jan 2015 (Local Time) from LFVP Reporting Station
Broken Clouds Broken Clouds  
Wind Chill: 24°   Ceiling: 2000
Heat Index: 37°   Visibility: 2.5mi
Dew Point: 32°   Wind: 37mph
Humidity: 81%   Direction: 240°WSW
Pressure: 29.09"   Gusts: 55mph
Location:  47.65°N, 54.93°W
Report Text: LFVP 251600Z 24032G48KT 4000 BKN020 03/00 Q0985 NOSIG
Loading
Personal Weather Stations






























Interactive Weather Map New forecast layout! Learn more

10-Day Weather Forecast

Advertisements
Track Severe Weather on mobile